Time;durP1;ratioP1;P1;durP2;ratioP2;P2;SDS_P1;SDS_P2;PMS_P1;PMS_P2;Temp;Humidity;BMP_temperature;BMP_pressure;BME280_temperature;BME280_humidity;BME280_pressure;Samples;Min_cycle;Max_cycle;Signal;HPM_P1;HPM_P2
2021/12/05 00:16:57;;;;;;;50.30;17.60;;;3.80;99.90;;;;;;5000071;28;20463;-68
2021/12/05 00:21:34;;;;;;;42.15;13.40;;;4.00;99.90;;;;;;4990771;28;20487;-70
2021/12/05 00:24:29;;;;;;;44.53;14.27;;;4.10;99.90;;;;;;4996855;28;20485;-68
2021/12/05 00:26:56;;;;;;;39.67;13.23;;;4.10;99.90;;;;;;4977251;28;20064;-67
2021/12/05 00:43:24;;;;;;;38.15;13.43;;;4.20;99.90;;;;;;4979455;28;20055;-67
2021/12/05 00:59:20;;;;;;;34.83;13.90;;;4.20;99.90;;;;;;5016016;28;20111;-67
2021/12/05 01:07:24;;;;;;;30.85;13.15;;;4.20;99.90;;;;;;5015649;28;20458;-69
2021/12/05 01:15:04;;;;;;;37.92;12.45;;;4.20;99.90;;;;;;5015389;28;20141;-68
2021/12/05 01:17:40;;;;;;;29.92;12.00;;;4.20;99.90;;;;;;4999073;28;20062;-69
2021/12/05 01:20:13;;;;;;;23.60;11.55;;;4.20;99.90;;;;;;4996401;28;20042;-67
2021/12/05 01:22:45;;;;;;;23.38;11.20;;;4.20;99.90;;;;;;4996001;28;20047;-68
2021/12/05 01:28:23;;;;;;;32.25;12.23;;;4.30;99.90;;;;;;4947053;28;20089;-67
2021/12/05 01:36:47;;;;;;;27.95;11.93;;;4.20;99.90;;;;;;4995699;28;20473;-67
2021/12/05 01:44:35;;;;;;;33.80;11.90;;;4.20;99.90;;;;;;4995498;28;20137;-67
2021/12/05 01:52:49;;;;;;;24.95;11.68;;;4.10;99.90;;;;;;5015102;28;20558;-67
2021/12/05 01:55:52;;;;;;;23.88;11.80;;;4.10;99.90;;;;;;4998301;28;20123;-69
2021/12/05 02:09:38;;;;;;;29.52;12.55;;;4.10;99.90;;;;;;4997786;28;20053;-69
2021/12/05 02:42:08;;;;;;;30.42;12.32;;;4.20;99.90;;;;;;4999065;28;20108;-67
2021/12/05 02:44:34;;;;;;;29.02;11.18;;;4.20;99.90;;;;;;4998741;28;20050;-68
2021/12/05 02:47:07;;;;;;;23.10;11.32;;;4.20;99.90;;;;;;4998878;28;20424;-69
2021/12/05 02:49:37;;;;;;;30.45;12.30;;;4.20;99.90;;;;;;4999831;28;20062;-68
2021/12/05 02:52:08;;;;;;;31.17;13.15;;;4.20;99.90;;;;;;5018559;28;20046;-69
2021/12/05 02:54:43;;;;;;;36.63;13.20;;;4.20;99.90;;;;;;5018303;28;20097;-67
2021/12/05 02:57:10;;;;;;;24.83;11.68;;;4.20;99.90;;;;;;5001386;28;20042;-68
2021/12/05 03:02:07;;;;;;;25.77;12.35;;;4.20;99.90;;;;;;5018460;28;20061;-68
2021/12/05 03:04:35;;;;;;;28.95;11.85;;;4.20;99.90;;;;;;5000986;28;20128;-66
2021/12/05 03:07:05;;;;;;;29.65;11.93;;;4.20;99.90;;;;;;5000864;28;20115;-67
2021/12/05 03:09:31;;;;;;;23.88;10.98;;;4.20;99.90;;;;;;5018291;28;20379;-66
2021/12/05 03:11:57;;;;;;;32.30;14.02;;;4.20;99.90;;;;;;5001079;28;20046;-68
2021/12/05 03:14:23;;;;;;;32.58;13.27;;;4.20;99.90;;;;;;4998930;28;20462;-69
2021/12/05 03:16:50;;;;;;;24.42;13.82;;;4.20;99.90;;;;;;5018171;28;20129;-67
2021/12/05 03:19:17;;;;;;;27.38;12.88;;;4.20;99.90;;;;;;5001248;28;20137;-68
2021/12/05 03:21:44;;;;;;;28.25;12.63;;;4.20;99.90;;;;;;5000839;28;20045;-68
2021/12/05 03:24:11;;;;;;;25.58;13.10;;;4.20;99.90;;;;;;5017856;28;20500;-66
2021/12/05 03:26:41;;;;;;;28.52;12.25;;;4.20;99.90;;;;;;5017665;28;20109;-67
2021/12/05 03:29:08;;;;;;;31.52;13.43;;;4.20;99.90;;;;;;5000519;28;20080;-66
2021/12/05 03:31:35;;;;;;;30.35;13.60;;;4.20;99.90;;;;;;5017941;28;20132;-63
2021/12/05 03:34:03;;;;;;;32.00;13.05;;;4.20;99.90;;;;;;5000050;28;20064;-65
2021/12/05 03:36:28;;;;;;;39.15;14.80;;;4.20;99.90;;;;;;5017660;28;20367;-67
2021/12/05 03:38:54;;;;;;;38.00;14.02;;;4.20;99.90;;;;;;5017460;28;20045;-66
2021/12/05 03:41:20;;;;;;;29.38;14.23;;;4.20;99.90;;;;;;5000496;28;20053;-65
2021/12/05 03:43:49;;;;;;;30.23;15.55;;;4.20;99.90;;;;;;5015615;28;20042;-65
2021/12/05 03:46:15;;;;;;;34.25;15.32;;;4.20;99.90;;;;;;4997704;28;20046;-65
2021/12/05 03:48:45;;;;;;;40.45;16.50;;;4.20;99.90;;;;;;4997824;28;20058;-65
2021/12/05 03:51:14;;;;;;;46.63;17.40;;;4.20;99.90;;;;;;4998510;28;20050;-65
2021/12/05 03:53:40;;;;;;;39.78;17.00;;;4.20;99.90;;;;;;4980721;28;20459;-67
2021/12/05 03:56:08;;;;;;;47.72;18.23;;;4.10;99.90;;;;;;4980585;28;20050;-65
2021/12/05 03:58:35;;;;;;;35.60;16.65;;;4.10;99.90;;;;;;4980853;28;20070;-65
2021/12/05 04:01:03;;;;;;;49.08;18.90;;;4.20;99.90;;;;;;4980122;28;20542;-65
2021/12/05 04:03:30;;;;;;;41.65;18.73;;;4.20;99.90;;;;;;4980252;28;20042;-67
2021/12/05 04:05:57;;;;;;;43.08;19.00;;;4.20;99.90;;;;;;4997795;28;20042;-65
2021/12/05 04:08:25;;;;;;;37.63;18.98;;;4.10;99.90;;;;;;4997104;28;20448;-66
2021/12/05 04:10:55;;;;;;;42.17;19.15;;;4.10;99.90;;;;;;4997810;28;20108;-67
2021/12/05 04:13:21;;;;;;;37.88;18.75;;;4.10;99.90;;;;;;4997562;28;20130;-70
2021/12/05 04:15:49;;;;;;;44.80;19.48;;;4.10;99.90;;;;;;5014207;28;20117;-68
2021/12/05 04:18:14;;;;;;;46.63;20.67;;;4.10;99.90;;;;;;5017505;28;20474;-68
2021/12/05 04:20:40;;;;;;;46.88;20.88;;;4.10;99.90;;;;;;5016615;28;20038;-68
2021/12/05 04:23:06;;;;;;;43.63;20.40;;;4.00;99.90;;;;;;5016900;28;20446;-67
2021/12/05 04:25:36;;;;;;;43.85;20.00;;;4.00;99.90;;;;;;5016913;28;20122;-67
2021/12/05 04:28:04;;;;;;;44.22;20.77;;;4.00;99.90;;;;;;5016698;28;20454;-67
2021/12/05 04:30:30;;;;;;;41.53;20.42;;;4.00;99.90;;;;;;4999398;28;20054;-68
2021/12/05 04:32:55;;;;;;;55.08;22.92;;;4.00;99.90;;;;;;5016219;28;20042;-68
2021/12/05 04:35:21;;;;;;;59.17;22.58;;;4.00;99.90;;;;;;5016832;28;20042;-68
2021/12/05 04:37:46;;;;;;;54.20;22.73;;;4.00;99.90;;;;;;4999550;28;20042;-69
2021/12/05 04:40:13;;;;;;;46.97;21.75;;;4.00;99.90;;;;;;4999379;28;20069;-66
2021/12/05 04:42:39;;;;;;;53.55;21.63;;;4.00;99.90;;;;;;5016519;28;20080;-68
2021/12/05 04:45:08;;;;;;;43.13;20.48;;;4.00;99.90;;;;;;5004508;28;20054;-69
2021/12/05 04:47:34;;;;;;;44.95;21.83;;;4.00;99.90;;;;;;4978812;28;20060;-68
2021/12/05 04:50:00;;;;;;;48.30;19.90;;;4.00;99.90;;;;;;4979173;28;20125;-68
2021/12/05 04:52:25;;;;;;;39.55;20.05;;;4.00;99.90;;;;;;4979574;28;20051;-68
2021/12/05 04:54:51;;;;;;;40.33;19.48;;;4.00;99.90;;;;;;4996924;28;20431;-67
2021/12/05 04:57:17;;;;;;;50.00;20.67;;;4.00;99.90;;;;;;4979537;28;20113;-68
2021/12/05 04:59:47;;;;;;;41.88;21.08;;;4.00;99.90;;;;;;4996312;28;20072;-68
2021/12/05 05:02:13;;;;;;;37.35;19.35;;;4.00;99.90;;;;;;4979153;28;20140;-68
2021/12/05 05:04:45;;;;;;;58.33;20.73;;;4.00;99.90;;;;;;4996740;28;20054;-66
2021/12/05 05:07:20;;;;;;;43.47;18.98;;;4.00;99.90;;;;;;4979731;28;20054;-67
2021/12/05 05:09:47;;;;;;;45.25;19.88;;;4.00;99.90;;;;;;4979478;28;20046;-68
2021/12/05 05:12:13;;;;;;;44.30;18.90;;;4.00;99.90;;;;;;4997951;28;20446;-70
2021/12/05 05:14:39;;;;;;;41.28;18.30;;;4.00;99.90;;;;;;5015282;28;20084;-67
2021/12/05 05:17:05;;;;;;;44.97;18.05;;;4.00;99.90;;;;;;4998564;28;20057;-68
2021/12/05 05:19:39;;;;;;;38.50;17.83;;;3.90;99.90;;;;;;4998967;28;20053;-68
2021/12/05 05:22:21;;;;;;;36.42;17.45;;;3.90;99.90;;;;;;5015924;28;20450;-68
2021/12/05 05:49:20;;;;;;;38.17;13.07;;;3.70;99.90;;;;;;4978585;28;20054;-69
2021/12/05 05:51:46;;;;;;;28.95;13.85;;;3.70;99.90;;;;;;4995914;28;20050;-67
2021/12/05 05:54:13;;;;;;;34.40;13.55;;;3.70;99.90;;;;;;4995602;28;20161;-67
2021/12/05 05:56:41;;;;;;;37.67;14.88;;;3.60;99.90;;;;;;4978794;28;20054;-67
2021/12/05 05:59:21;;;;;;;31.55;14.52;;;3.90;99.90;;;;;;4978126;28;20054;-67
2021/12/05 06:04:17;;;;;;;31.63;13.00;;;3.60;99.90;;;;;;4978215;28;20058;-67
2021/12/05 06:06:43;;;;;;;35.97;12.27;;;3.60;99.90;;;;;;4995718;28;20046;-67
2021/12/05 06:09:08;;;;;;;38.10;13.70;;;3.60;99.90;;;;;;4978772;28;20051;-67
2021/12/05 06:11:35;;;;;;;31.27;13.40;;;3.60;99.90;;;;;;4990435;28;20430;-68
2021/12/05 06:14:02;;;;;;;32.67;12.13;;;3.70;99.90;;;;;;5015110;28;20100;-68
2021/12/05 06:16:28;;;;;;;35.67;12.95;;;3.60;99.90;;;;;;4997925;28;20041;-68
2021/12/05 06:18:53;;;;;;;27.52;12.55;;;3.60;99.90;;;;;;5015048;28;20362;-68
2021/12/05 06:21:19;;;;;;;34.88;13.70;;;3.60;99.90;;;;;;5005489;28;20433;-68
2021/12/05 06:23:45;;;;;;;32.22;12.23;;;3.60;99.90;;;;;;4991890;28;20053;-69
2021/12/05 06:26:15;;;;;;;32.60;13.02;;;3.50;99.90;;;;;;4980455;28;20133;-68
2021/12/05 06:28:43;;;;;;;34.25;11.68;;;3.50;99.90;;;;;;4977824;28;20046;-68
2021/12/05 06:39:39;;;;;;;27.95;10.88;;;3.50;99.90;;;;;;4975774;28;20436;-69
2021/12/05 06:42:19;;;;;;;32.53;11.73;;;3.50;99.90;;;;;;4975694;28;20050;-66
2021/12/05 06:47:30;;;;;;;35.00;12.07;;;3.50;99.90;;;;;;4978887;28;20099;-70
2021/12/05 06:49:57;;;;;;;29.08;11.73;;;3.60;99.90;;;;;;4976925;28;20459;-70
2021/12/05 06:52:23;;;;;;;32.20;11.52;;;3.50;99.90;;;;;;4984713;28;20066;-69
2021/12/05 06:54:50;;;;;;;36.13;12.32;;;3.60;99.90;;;;;;4963247;28;20436;-67
2021/12/05 06:57:17;;;;;;;30.00;11.30;;;3.60;99.90;;;;;;4969336;28;20047;-68
2021/12/05 06:59:45;;;;;;;32.17;12.15;;;3.60;99.90;;;;;;4986889;28;20047;-68
2021/12/05 07:02:13;;;;;;;35.30;12.02;;;3.40;99.90;;;;;;4980869;28;20039;-68
2021/12/05 07:07:24;;;;;;;43.47;12.15;;;3.60;99.90;;;;;;4975439;28;20055;-68
2021/12/05 07:09:52;;;;;;;35.25;12.35;;;3.60;99.90;;;;;;4958812;28;20158;-67
2021/12/05 07:20:54;;;;;;;29.52;12.75;;;3.60;99.90;;;;;;4962108;28;20058;-68
2021/12/05 07:26:07;;;;;;;34.40;12.43;;;3.60;99.90;;;;;;4978669;28;20058;-67
2021/12/05 07:42:23;;;;;;;30.10;12.25;;;3.60;99.90;;;;;;4978613;28;20058;-67
2021/12/05 07:44:51;;;;;;;39.90;13.23;;;3.60;99.90;;;;;;4978209;28;20038;-69
2021/12/05 07:47:19;;;;;;;26.85;11.55;;;3.60;99.90;;;;;;4978091;28;20422;-68
2021/12/05 07:49:47;;;;;;;31.83;12.10;;;3.60;99.90;;;;;;4991217;28;20062;-69
2021/12/05 07:52:18;;;;;;;36.50;14.20;;;3.60;99.90;;;;;;5008437;28;20057;-66
2021/12/05 07:54:47;;;;;;;37.42;13.45;;;3.60;99.90;;;;;;4999911;28;20125;-68
2021/12/05 07:58:03;;;;;;;33.78;14.25;;;3.60;99.90;;;;;;4995379;28;20534;-69
2021/12/05 08:16:31;;;;;;;36.33;15.40;;;3.70;99.90;;;;;;4997139;28;20046;-69
2021/12/05 08:18:56;;;;;;;35.28;15.13;;;3.80;99.90;;;;;;4997041;28;20447;-69
2021/12/05 08:21:22;;;;;;;36.80;16.17;;;3.80;99.90;;;;;;4980187;28;20054;-68
2021/12/05 08:23:50;;;;;;;39.55;16.20;;;3.80;99.90;;;;;;4979040;28;20398;-69
2021/12/05 08:26:25;;;;;;;39.88;16.08;;;3.80;99.90;;;;;;4997061;28;20426;-69
2021/12/05 08:29:05;;;;;;;42.35;17.48;;;3.80;99.90;;;;;;5012701;28;20116;-69
2021/12/05 08:40:10;;;;;;;37.38;15.63;;;4.00;99.90;;;;;;4999110;28;20050;-70
2021/12/05 08:42:56;;;;;;;41.80;16.02;;;4.00;99.90;;;;;;5015931;28;20058;-68
2021/12/05 09:21:23;;;;;;;38.95;14.43;;;4.30;99.90;;;;;;4980039;28;20065;-69
2021/12/05 09:31:28;;;;;;;32.17;15.15;;;4.30;99.90;;;;;;4995916;28;20140;-68
2021/12/05 10:12:18;;;;;;;31.38;13.52;;;4.50;99.90;;;;;;4995610;28;20050;-69
2021/12/05 10:34:57;;;;;;;25.33;13.52;;;4.60;99.90;;;;;;4994734;28;20121;-68
2021/12/05 10:37:25;;;;;;;28.73;13.80;;;4.60;99.90;;;;;;4979704;28;20320;-69
2021/12/05 10:40:12;;;;;;;26.60;13.32;;;4.60;99.90;;;;;;4993859;28;20054;-69
2021/12/05 10:42:44;;;;;;;21.63;12.63;;;4.70;99.90;;;;;;4992715;28;20362;-72
2021/12/05 10:45:25;;;;;;;28.15;13.90;;;4.60;99.90;;;;;;4992010;28;20522;-69
2021/12/05 10:47:53;;;;;;;28.85;13.35;;;4.60;99.90;;;;;;4997236;28;20093;-67
2021/12/05 10:50:44;;;;;;;26.52;13.82;;;4.60;99.90;;;;;;4995357;28;20050;-66
2021/12/05 10:53:28;;;;;;;37.17;13.85;;;4.70;99.90;;;;;;4998693;28;20050;-68
2021/12/05 10:56:13;;;;;;;29.83;13.75;;;4.90;99.90;;;;;;4998808;28;20132;-68
2021/12/05 10:58:44;;;;;;;31.50;14.30;;;4.70;99.90;;;;;;4996439;28;20367;-68
2021/12/05 11:01:18;;;;;;;29.13;14.40;;;4.70;99.90;;;;;;4980233;28;20459;-69
2021/12/05 11:03:46;;;;;;;26.48;13.30;;;4.70;99.90;;;;;;4997721;28;20567;-65
2021/12/05 11:06:34;;;;;;;29.20;13.45;;;4.70;99.90;;;;;;4980936;28;20047;-65
2021/12/05 11:09:05;;;;;;;26.17;13.45;;;4.70;99.90;;;;;;4980302;28;20046;-64
2021/12/05 11:11:31;;;;;;;32.58;14.25;;;4.70;99.90;;;;;;4998644;28;20371;-65
2021/12/05 11:13:59;;;;;;;21.08;11.57;;;4.80;99.90;;;;;;4998196;28;20042;-63
2021/12/05 11:16:45;;;;;;;27.08;12.88;;;4.80;99.90;;;;;;4981077;28;20383;-65
2021/12/05 11:19:36;;;;;;;20.80;11.65;;;4.80;99.90;;;;;;4981513;28;20073;-66
2021/12/05 11:22:07;;;;;;;24.48;11.45;;;4.80;99.90;;;;;;4975767;28;20100;-66
2021/12/05 11:24:39;;;;;;;30.00;12.52;;;4.80;99.90;;;;;;4980668;28;20054;-68
2021/12/05 11:27:32;;;;;;;22.50;12.30;;;4.80;99.90;;;;;;4980575;28;20379;-65
2021/12/05 11:30:04;;;;;;;23.05;12.07;;;4.90;99.90;;;;;;4980880;28;20047;-69
2021/12/05 11:32:41;;;;;;;21.48;11.07;;;4.80;99.90;;;;;;4981374;28;20447;-67
2021/12/05 11:35:16;;;;;;;28.67;12.27;;;4.90;99.90;;;;;;4998038;28;20057;-68
2021/12/05 11:37:54;;;;;;;22.17;12.05;;;4.90;99.90;;;;;;4997944;28;20462;-67
2021/12/05 11:40:23;;;;;;;20.98;11.35;;;4.90;99.90;;;;;;4997073;28;20056;-68
2021/12/05 11:43:00;;;;;;;20.55;11.55;;;4.90;99.90;;;;;;4981222;28;20122;-67
2021/12/05 11:45:27;;;;;;;26.92;12.63;;;4.90;99.90;;;;;;4980489;28;20061;-67
2021/12/05 11:47:53;;;;;;;23.50;11.43;;;4.90;99.90;;;;;;4980066;28;20101;-68
2021/12/05 11:50:34;;;;;;;21.98;11.25;;;4.90;99.90;;;;;;4979461;28;20133;-68
2021/12/05 11:52:59;;;;;;;23.30;10.60;;;4.90;99.90;;;;;;4996498;28;20046;-69
2021/12/05 11:55:28;;;;;;;23.35;12.13;;;4.90;99.90;;;;;;4997166;28;20042;-69
2021/12/05 11:57:54;;;;;;;22.05;11.52;;;4.90;99.90;;;;;;4997230;28;20038;-69
2021/12/05 12:00:21;;;;;;;28.55;12.85;;;4.90;99.90;;;;;;4979989;28;20072;-68
2021/12/05 12:02:48;;;;;;;23.75;11.52;;;4.90;99.90;;;;;;4997016;28;20042;-68
2021/12/05 12:05:19;;;;;;;24.77;11.35;;;4.90;99.90;;;;;;4981218;28;20371;-68
2021/12/05 12:08:10;;;;;;;23.73;12.77;;;5.00;99.90;;;;;;4980495;28;20140;-70
2021/12/05 12:10:38;;;;;;;25.02;13.20;;;5.00;99.90;;;;;;4976862;28;20090;-68
2021/12/05 12:13:19;;;;;;;23.27;12.43;;;5.00;99.90;;;;;;4985626;28;20120;-67
2021/12/05 12:15:49;;;;;;;24.95;11.85;;;5.10;99.90;;;;;;4996691;28;20045;-66
2021/12/05 12:18:34;;;;;;;24.20;12.27;;;5.10;99.90;;;;;;4992044;28;20046;-68
2021/12/05 12:21:11;;;;;;;24.88;11.77;;;5.10;99.90;;;;;;4996323;28;20038;-68
2021/12/05 12:23:38;;;;;;;26.10;12.35;;;5.10;99.90;;;;;;4978897;28;20188;-68
2021/12/05 12:26:06;;;;;;;20.20;11.68;;;5.10;99.90;;;;;;4996746;28;20092;-69
2021/12/05 12:28:32;;;;;;;22.92;12.55;;;5.20;99.90;;;;;;5006422;28;20062;-67
2021/12/05 12:31:02;;;;;;;23.77;12.43;;;5.20;99.90;;;;;;5015980;28;20425;-69
2021/12/05 12:33:34;;;;;;;21.80;12.48;;;5.20;99.90;;;;;;4995302;28;20134;-69
2021/12/05 12:36:00;;;;;;;24.50;12.98;;;5.20;99.90;;;;;;4981819;28;20121;-69
2021/12/05 12:38:38;;;;;;;20.40;12.10;;;5.30;99.90;;;;;;4995801;28;20065;-68
2021/12/05 12:41:15;;;;;;;32.17;13.98;;;5.30;99.90;;;;;;4995756;28;20532;-69
2021/12/05 12:43:52;;;;;;;21.30;12.80;;;5.40;99.90;;;;;;4995766;28;20053;-68
2021/12/05 12:46:40;;;;;;;21.67;11.32;;;5.40;99.90;;;;;;4994978;28;20046;-68
2021/12/05 12:49:15;;;;;;;22.35;12.07;;;5.50;99.90;;;;;;4994429;28;20046;-67
2021/12/05 12:51:44;;;;;;;26.08;13.30;;;5.60;99.90;;;;;;4995902;28;20096;-67
2021/12/05 12:54:15;;;;;;;22.90;11.63;;;5.70;99.90;;;;;;4994770;28;20051;-66
2021/12/05 12:56:43;;;;;;;20.13;11.57;;;5.70;99.90;;;;;;4995511;28;20123;-64
2021/12/05 12:59:14;;;;;;;16.83;10.95;;;5.80;99.90;;;;;;4994768;28;20367;-63
2021/12/05 13:12:57;;;;;;;22.77;10.20;;;5.60;99.90;;;;;;4965772;28;20081;-66
2021/12/05 13:15:39;;;;;;;17.02;10.30;;;5.90;99.90;;;;;;4978337;28;20057;-64
2021/12/05 13:18:23;;;;;;;21.23;9.63;;;5.90;99.90;;;;;;4978582;28;20046;-64
2021/12/05 13:21:15;;;;;;;16.35;10.20;;;5.90;99.90;;;;;;4994792;28;20082;-65
2021/12/05 13:23:45;;;;;;;18.40;9.63;;;5.80;99.90;;;;;;4964295;28;20054;-64
2021/12/05 13:26:33;;;;;;;19.17;9.60;;;5.80;99.90;;;;;;4980983;28;20112;-65
2021/12/05 13:29:10;;;;;;;16.35;9.80;;;5.70;99.90;;;;;;5001386;28;20092;-65
2021/12/05 13:32:10;;;;;;;16.02;10.15;;;5.70;99.90;;;;;;5015615;28;20046;-66
2021/12/05 13:34:42;;;;;;;19.35;10.55;;;5.70;99.90;;;;;;5011794;28;20058;-67
2021/12/05 13:37:11;;;;;;;21.65;9.82;;;5.60;99.90;;;;;;4998462;28;20054;-68
2021/12/05 13:39:53;;;;;;;20.92;10.88;;;5.60;99.90;;;;;;5015012;28;20097;-67
2021/12/05 13:42:24;;;;;;;17.25;9.77;;;5.60;99.90;;;;;;4998158;28;20057;-68
2021/12/05 13:45:14;;;;;;;24.42;10.07;;;5.70;99.90;;;;;;4998259;28;20128;-69
2021/12/05 13:47:53;;;;;;;22.08;9.75;;;5.60;99.90;;;;;;4997802;28;20061;-67
2021/12/05 13:50:21;;;;;;;20.15;9.07;;;5.60;99.90;;;;;;5015125;28;20054;-66
2021/12/05 13:52:51;;;;;;;17.25;8.90;;;5.60;99.90;;;;;;5015218;28;20129;-68
2021/12/05 13:55:53;;;;;;;19.45;9.57;;;5.60;99.90;;;;;;4997862;28;20042;-67
2021/12/05 13:58:43;;;;;;;19.63;9.57;;;5.60;99.90;;;;;;4997780;28;20129;-68
2021/12/05 14:01:29;;;;;;;17.33;8.45;;;5.70;99.90;;;;;;4995232;28;20072;-68
2021/12/05 14:04:16;;;;;;;16.73;9.75;;;5.70;99.90;;;;;;4977984;28;20064;-68
2021/12/05 14:06:53;;;;;;;17.85;9.70;;;5.70;99.90;;;;;;4995543;28;20069;-68
2021/12/05 14:09:37;;;;;;;13.68;8.73;;;5.70;99.90;;;;;;4980316;28;20077;-66
2021/12/05 14:12:03;;;;;;;;;;;5.60;99.90;;;;;;4990209;28;20057;-67
2021/12/05 14:14:50;;;;;;;20.70;9.75;;;5.60;99.90;;;;;;4998140;28;19933;-68
2021/12/05 14:17:21;;;;;;;15.18;9.93;;;5.60;99.90;;;;;;5015025;28;20046;-67
2021/12/05 14:20:13;;;;;;;19.35;10.20;;;5.60;99.90;;;;;;5014799;28;20371;-67
2021/12/05 14:22:41;;;;;;;16.67;10.00;;;5.60;99.90;;;;;;4993698;28;20189;-68
2021/12/05 14:25:13;;;;;;;19.30;9.40;;;5.60;99.90;;;;;;5001996;28;20046;-68
2021/12/05 14:27:49;;;;;;;18.55;9.57;;;5.60;99.90;;;;;;5001655;28;20476;-68
2021/12/05 14:30:19;;;;;;;13.73;9.35;;;5.50;99.90;;;;;;5001730;28;20108;-69
2021/12/05 14:32:46;;;;;;;18.10;9.73;;;5.50;99.90;;;;;;5018465;28;20060;-68
2021/12/05 14:35:15;;;;;;;19.27;10.48;;;5.50;99.90;;;;;;5001870;28;20470;-66
2021/12/05 14:37:43;;;;;;;18.60;10.55;;;5.50;99.90;;;;;;5018711;28;20041;-67
2021/12/05 14:40:12;;;;;;;17.77;9.95;;;5.50;99.90;;;;;;5001532;28;20053;-63
2021/12/05 14:42:42;;;;;;;17.50;10.30;;;5.50;99.90;;;;;;5002718;28;20058;-64
2021/12/05 14:45:16;;;;;;;17.90;9.93;;;5.40;99.90;;;;;;4999020;28;20094;-64
2021/12/05 14:47:45;;;;;;;23.50;10.13;;;5.40;99.90;;;;;;4982268;28;20046;-65
2021/12/05 14:50:30;;;;;;;18.70;9.38;;;5.40;99.90;;;;;;5006774;28;20486;-64
2021/12/05 14:52:57;;;;;;;17.05;9.05;;;5.40;99.90;;;;;;4984030;28;20073;-65
2021/12/05 14:55:25;;;;;;;18.67;9.30;;;5.30;99.90;;;;;;4979949;28;20050;-64
2021/12/05 14:57:56;;;;;;;19.83;9.73;;;5.30;99.90;;;;;;4997309;28;20108;-64
2021/12/05 15:00:35;;;;;;;18.73;10.40;;;5.30;99.90;;;;;;4997403;28;20064;-66
2021/12/05 15:03:17;;;;;;;22.80;9.77;;;5.30;99.90;;;;;;4980505;28;20112;-66
2021/12/05 15:05:50;;;;;;;21.83;10.23;;;5.30;99.90;;;;;;4980336;28;20352;-66
2021/12/05 15:08:20;;;;;;;14.27;9.95;;;5.30;99.90;;;;;;4997233;28;20078;-65
2021/12/05 15:10:50;;;;;;;22.77;11.32;;;5.30;99.90;;;;;;4980269;28;20076;-64
2021/12/05 15:13:17;;;;;;;19.23;10.60;;;5.20;99.90;;;;;;4978083;28;20101;-65
2021/12/05 15:15:43;;;;;;;19.00;10.30;;;5.20;99.90;;;;;;4977880;28;20371;-66
2021/12/05 15:18:17;;;;;;;18.65;10.90;;;5.30;99.90;;;;;;4960893;28;20047;-66
2021/12/05 15:20:46;;;;;;;22.70;10.80;;;5.20;99.90;;;;;;4960939;28;20054;-66
2021/12/05 15:23:12;;;;;;;22.70;11.00;;;5.20;99.90;;;;;;4977455;28;20050;-66
2021/12/05 15:25:40;;;;;;;18.80;10.30;;;5.20;99.90;;;;;;4961350;28;20051;-65
2021/12/05 15:28:07;;;;;;;18.38;10.93;;;5.20;99.90;;;;;;4960445;28;20097;-65
2021/12/05 15:30:37;;;;;;;23.60;12.10;;;5.20;99.90;;;;;;4977680;28;20117;-66
2021/12/05 15:33:09;;;;;;;19.75;11.57;;;5.20;99.90;;;;;;4977066;28;20105;-65
2021/12/05 15:35:36;;;;;;;23.15;12.48;;;5.20;99.90;;;;;;4960541;28;20047;-65
2021/12/05 15:38:06;;;;;;;20.83;12.68;;;5.20;99.90;;;;;;4961041;28;20142;-65
2021/12/05 15:40:34;;;;;;;23.33;12.55;;;5.20;99.90;;;;;;4961594;28;20082;-66
2021/12/05 15:43:04;;;;;;;21.60;11.90;;;5.20;99.90;;;;;;4998916;28;20428;-65
2021/12/05 15:45:30;;;;;;;26.33;12.77;;;5.10;99.90;;;;;;5015793;28;20058;-64
2021/12/05 15:47:56;;;;;;;24.20;13.00;;;5.10;99.90;;;;;;4999511;28;20041;-64
2021/12/05 15:50:25;;;;;;;26.48;14.50;;;5.10;99.90;;;;;;4964623;28;1017138;-66
2021/12/05 15:52:55;;;;;;;27.55;13.90;;;5.10;99.90;;;;;;5017344;28;20081;-65
2021/12/05 15:55:34;;;;;;;23.17;13.55;;;5.10;99.90;;;;;;5000589;28;20049;-64
2021/12/05 15:58:08;;;;;;;23.58;14.80;;;5.10;99.90;;;;;;5017205;28;20045;-65
2021/12/05 16:00:43;;;;;;;26.58;14.77;;;5.10;99.90;;;;;;5017059;28;20038;-66
2021/12/05 16:03:12;;;;;;;27.23;15.38;;;5.10;99.90;;;;;;5000210;28;20341;-66
2021/12/05 16:05:40;;;;;;;31.48;15.93;;;5.00;99.90;;;;;;5017173;28;20052;-64
2021/12/05 16:08:07;;;;;;;29.23;15.82;;;5.00;99.90;;;;;;5000107;28;20129;-65
2021/12/05 16:10:35;;;;;;;27.88;15.98;;;5.00;99.90;;;;;;4998974;28;20088;-65
2021/12/05 16:13:19;;;;;;;26.38;14.77;;;5.00;99.90;;;;;;4983749;28;20049;-65
2021/12/05 16:15:49;;;;;;;26.42;15.45;;;5.00;99.90;;;;;;5017115;28;20458;-65
2021/12/05 16:18:15;;;;;;;28.65;16.52;;;5.00;99.90;;;;;;4999911;28;20081;-65
2021/12/05 16:20:55;;;;;;;32.83;15.73;;;4.90;99.90;;;;;;5000611;28;20049;-64
2021/12/05 16:23:29;;;;;;;31.33;17.70;;;4.90;99.90;;;;;;5016589;28;20116;-65
2021/12/05 16:26:04;;;;;;;31.70;18.38;;;5.00;99.90;;;;;;4999478;28;20060;-65
2021/12/05 16:28:37;;;;;;;32.92;18.75;;;4.90;99.90;;;;;;4999463;28;20092;-65
2021/12/05 16:31:14;;;;;;;32.47;19.33;;;5.00;99.90;;;;;;5016976;28;20064;-65
2021/12/05 16:33:46;;;;;;;34.47;19.17;;;5.00;99.90;;;;;;5016350;28;20077;-65
2021/12/05 16:36:13;;;;;;;37.42;19.83;;;5.00;99.90;;;;;;4999240;28;20054;-64
2021/12/05 16:38:44;;;;;;;30.33;19.83;;;4.90;99.90;;;;;;4999405;28;20132;-67
2021/12/05 16:41:17;;;;;;;36.03;20.65;;;4.90;99.90;;;;;;4999420;28;20354;-66
2021/12/05 16:44:10;;;;;;;40.20;20.98;;;4.90;99.90;;;;;;5007174;28;20066;-67
2021/12/05 16:46:41;;;;;;;38.67;21.23;;;4.90;99.90;;;;;;4976603;28;20074;-64
2021/12/05 16:49:16;;;;;;;42.65;21.50;;;4.90;99.90;;;;;;4996537;28;20061;-65
2021/12/05 16:51:52;;;;;;;34.53;21.10;;;4.90;99.90;;;;;;4990279;28;20089;-65
2021/12/05 16:54:21;;;;;;;35.20;21.73;;;4.90;99.90;;;;;;5016111;28;20099;-67
2021/12/05 16:56:58;;;;;;;42.35;21.25;;;4.80;99.90;;;;;;5016563;28;20077;-64
2021/12/05 16:59:26;;;;;;;40.95;22.70;;;4.90;99.90;;;;;;4999089;28;20057;-66
2021/12/05 17:02:22;;;;;;;37.90;22.08;;;4.80;99.90;;;;;;4998734;28;20061;-65
2021/12/05 17:05:00;;;;;;;46.70;22.75;;;4.70;99.90;;;;;;5015810;28;20099;-65
2021/12/05 17:10:57;;;;;;;36.88;21.63;;;4.70;99.90;;;;;;4965916;28;20177;-66
2021/12/05 17:13:34;;;;;;;41.17;22.67;;;4.70;99.90;;;;;;4979262;28;20050;-64
2021/12/05 17:16:10;;;;;;;34.53;22.42;;;4.70;99.90;;;;;;5001126;28;20121;-66
2021/12/05 17:19:09;;;;;;;36.67;22.17;;;4.60;99.90;;;;;;5015228;28;20058;-65
2021/12/05 17:21:38;;;;;;;39.58;21.88;;;4.60;99.90;;;;;;4963615;28;20062;-66
2021/12/05 17:24:14;;;;;;;39.10;23.10;;;4.60;99.90;;;;;;5015540;28;20046;-65
2021/12/05 17:26:47;;;;;;;36.25;22.77;;;4.60;99.90;;;;;;4996562;28;20050;-66
2021/12/05 17:29:17;;;;;;;44.80;21.73;;;4.60;99.90;;;;;;5015902;28;20117;-66
2021/12/05 17:32:07;;;;;;;36.83;23.00;;;4.50;99.90;;;;;;5015801;28;20094;-66
2021/12/05 17:34:46;;;;;;;39.95;23.48;;;4.50;99.90;;;;;;4990425;28;20069;-65
2021/12/05 17:37:18;;;;;;;36.40;23.70;;;4.50;99.90;;;;;;5015368;28;20073;-65
2021/12/05 17:39:46;;;;;;;34.97;22.83;;;4.50;99.90;;;;;;5007148;28;20041;-66
2021/12/05 17:42:15;;;;;;;37.95;22.42;;;4.50;99.90;;;;;;5015502;28;20057;-65
2021/12/05 17:44:41;;;;;;;38.13;22.98;;;4.50;99.90;;;;;;5015212;28;20057;-64
2021/12/05 17:47:11;;;;;;;34.03;22.10;;;4.50;99.90;;;;;;4998365;28;20053;-66
2021/12/05 17:49:39;;;;;;;38.80;22.92;;;4.50;99.90;;;;;;4998262;28;20139;-64
2021/12/05 17:52:06;;;;;;;40.13;23.65;;;4.50;99.90;;;;;;4998528;28;20050;-65
2021/12/05 17:54:42;;;;;;;35.70;22.77;;;4.50;99.90;;;;;;5015330;28;20057;-64
2021/12/05 17:57:16;;;;;;;33.30;21.75;;;4.40;99.90;;;;;;5015604;28;20034;-65
2021/12/05 18:02:42;;;;;;;35.83;22.00;;;4.40;99.90;;;;;;5008690;28;20077;-64
2021/12/05 18:05:22;;;;;;;41.08;23.00;;;4.30;99.90;;;;;;4978338;28;20051;-65
2021/12/05 18:07:52;;;;;;;35.47;23.52;;;4.30;99.90;;;;;;4995467;28;20086;-66
2021/12/05 18:10:20;;;;;;;38.50;23.08;;;4.50;99.90;;;;;;4995708;28;20050;-66
2021/12/05 18:12:49;;;;;;;39.30;22.50;;;4.20;99.90;;;;;;4995509;28;20367;-66
2021/12/05 18:15:20;;;;;;;39.95;22.80;;;4.40;99.90;;;;;;4978615;28;20121;-65
2021/12/05 18:17:46;;;;;;;35.83;23.33;;;4.20;99.90;;;;;;4978360;28;20485;-65
2021/12/05 18:20:18;;;;;;;32.22;20.88;;;4.20;99.90;;;;;;4977854;28;20046;-65
2021/12/05 18:22:45;;;;;;;35.63;22.42;;;4.20;99.90;;;;;;4995476;28;20057;-66
2021/12/05 18:25:12;;;;;;;33.38;21.88;;;4.20;99.90;;;;;;4995709;28;20455;-66
2021/12/05 18:27:39;;;;;;;33.85;21.15;;;4.20;99.90;;;;;;4995637;28;20057;-66
2021/12/05 18:30:08;;;;;;;36.15;22.70;;;4.10;99.90;;;;;;4978387;28;20058;-64
2021/12/05 18:32:34;;;;;;;32.88;21.27;;;4.10;99.90;;;;;;5001568;28;20050;-63